Time;durP1;ratioP1;P1;durP2;ratioP2;P2;SDS_P1;SDS_P2;PMS_P1;PMS_P2;Temp;Humidity;BMP_temperature;BMP_pressure;BME280_temperature;BME280_humidity;BME280_pressure;Samples;Min_cycle;Max_cycle;Signal;HPM_P1;HPM_P2
2023/11/08 00:02:03;;;;;;;5.35;2.15;;;;;;;9.79;100.00;101181.84;5267404;28;20028;-72
2023/11/08 00:04:34;;;;;;;4.05;1.92;;;;;;;9.85;100.00;101175.84;5261128;28;20034;-72
2023/11/08 00:07:04;;;;;;;4.78;1.85;;;;;;;9.91;100.00;101177.91;5252251;28;20174;-72
2023/11/08 00:09:35;;;;;;;4.25;1.42;;;;;;;9.91;100.00;101180.59;5269698;28;20055;-72
2023/11/08 00:12:06;;;;;;;8.82;2.10;;;;;;;9.85;100.00;101181.22;5261424;28;20474;-72
2023/11/08 00:14:36;;;;;;;6.60;2.20;;;;;;;9.72;100.00;101186.94;5260820;28;20028;-72
2023/11/08 00:17:07;;;;;;;8.82;1.75;;;;;;;9.71;100.00;101177.22;5260322;28;20592;-71
2023/11/08 00:19:37;;;;;;;10.05;1.98;;;;;;;9.67;100.00;101185.72;5256257;28;20397;-72
2023/11/08 00:22:08;;;;;;;7.85;2.00;;;;;;;9.73;100.00;101182.41;5263126;28;20051;-72
2023/11/08 00:24:38;;;;;;;11.57;3.10;;;;;;;9.68;100.00;101176.69;5264255;28;20023;-71
2023/11/08 00:27:09;;;;;;;6.25;2.22;;;;;;;9.59;100.00;101187.31;5262495;28;20039;-71
2023/11/08 00:29:39;;;;;;;8.57;1.65;;;;;;;9.65;100.00;101177.00;5267588;28;20034;-72
2023/11/08 00:32:10;;;;;;;6.40;1.98;;;;;;;9.56;100.00;101192.13;5269398;28;20024;-72
2023/11/08 00:34:40;;;;;;;8.05;1.80;;;;;;;9.56;100.00;101195.66;5267083;28;20293;-71
2023/11/08 00:37:12;;;;;;;6.43;1.65;;;;;;;9.50;100.00;101196.25;5264059;28;20035;-71
2023/11/08 00:39:44;;;;;;;5.40;2.20;;;;;;;9.53;100.00;101192.41;5262527;28;20489;-71
2023/11/08 00:42:14;;;;;;;8.60;2.17;;;;;;;9.48;100.00;101197.38;5256169;28;20063;-72
2023/11/08 00:44:45;;;;;;;9.48;1.90;;;;;;;9.51;100.00;101197.09;5260294;28;20036;-71
2023/11/08 00:47:15;;;;;;;4.38;1.38;;;;;;;9.50;100.00;101193.59;5268584;28;20099;-72
2023/11/08 00:49:46;;;;;;;12.05;2.72;;;;;;;9.50;100.00;101192.75;5264876;28;20436;-71
2023/11/08 00:52:16;;;;;;;7.05;1.75;;;;;;;9.43;100.00;101197.00;5260193;28;20086;-71
2023/11/08 00:54:48;;;;;;;6.38;1.40;;;;;;;9.48;100.00;101203.59;5253868;28;20020;-71
2023/11/08 00:57:19;;;;;;;5.75;1.85;;;;;;;9.47;100.00;101206.44;5256899;28;20032;-71
2023/11/08 00:59:49;;;;;;;8.90;2.05;;;;;;;9.44;100.00;101209.38;5267276;28;20024;-71
2023/11/08 01:02:20;;;;;;;13.10;2.72;;;;;;;9.45;100.00;101205.75;5262687;28;20035;-71
2023/11/08 01:04:50;;;;;;;12.43;1.80;;;;;;;9.36;100.00;101209.31;5260989;28;20115;-71
2023/11/08 01:07:21;;;;;;;7.50;2.20;;;;;;;9.35;100.00;101216.50;5264316;28;20028;-72
2023/11/08 01:09:51;;;;;;;7.05;2.13;;;;;;;9.28;100.00;101218.06;5258584;28;20059;-71
2023/11/08 01:12:23;;;;;;;7.82;1.83;;;;;;;9.31;100.00;101225.81;5265394;28;20100;-71
2023/11/08 01:14:53;;;;;;;4.00;1.50;;;;;;;9.32;100.00;101222.16;5266120;28;20032;-71
2023/11/08 01:17:24;;;;;;;7.97;1.35;;;;;;;9.30;100.00;101226.81;5266838;28;20381;-71
2023/11/08 01:19:55;;;;;;;7.70;2.10;;;;;;;9.18;100.00;101236.88;5266418;28;20127;-71
2023/11/08 01:22:25;;;;;;;7.80;1.67;;;;;;;9.14;100.00;101240.84;5262705;28;20028;-72
2023/11/08 01:24:56;;;;;;;12.73;2.72;;;;;;;9.18;100.00;101231.50;5260443;28;20086;-71
2023/11/08 01:27:26;;;;;;;3.85;1.42;;;;;;;9.22;100.00;101245.44;5259721;28;20032;-71
2023/11/08 01:29:56;;;;;;;3.25;1.20;;;;;;;9.20;100.00;101242.09;5271243;28;20020;-71
2023/11/08 01:32:27;;;;;;;4.78;1.17;;;;;;;9.20;100.00;101240.25;5261953;28;20028;-71
2023/11/08 01:34:59;;;;;;;8.50;1.83;;;;;;;9.00;100.00;101239.47;5268210;28;20043;-71
2023/11/08 01:37:33;;;;;;;6.20;1.40;;;;;;;9.17;100.00;101237.84;5255362;28;20051;-71
2023/11/08 01:40:06;;;;;;;3.58;1.40;;;;;;;9.23;100.00;101239.09;5257827;28;20119;-72
2023/11/08 01:42:36;;;;;;;4.47;1.52;;;;;;;9.16;100.00;101236.19;5259128;28;20067;-71
2023/11/08 01:45:07;;;;;;;9.35;1.92;;;;;;;9.19;100.00;101240.41;5261058;28;20896;-71
2023/11/08 01:47:39;;;;;;;6.13;1.40;;;;;;;9.24;100.00;101238.13;5264676;28;20028;-73
2023/11/08 01:50:10;;;;;;;5.57;1.17;;;;;;;9.22;100.00;101232.91;5259755;28;20066;-71
2023/11/08 01:52:41;;;;;;;6.22;1.58;;;;;;;9.31;100.00;101228.50;5269670;28;20493;-71
2023/11/08 01:55:12;;;;;;;4.35;1.40;;;;;;;9.29;100.00;101239.38;5257620;28;20059;-72
2023/11/08 01:57:44;;;;;;;5.15;1.27;;;;;;;9.31;100.00;101241.88;5257026;28;20024;-71
2023/11/08 02:00:17;;;;;;;5.38;1.05;;;;;;;9.31;100.00;101248.09;5257822;28;20024;-71
2023/11/08 02:02:48;;;;;;;9.98;1.75;;;;;;;9.33;100.00;101242.56;5261544;28;20374;-71
2023/11/08 02:05:18;;;;;;;2.67;1.40;;;;;;;9.35;100.00;101243.28;5265286;28;20024;-71
2023/11/08 02:07:49;;;;;;;7.00;1.20;;;;;;;9.26;100.00;101249.53;5262300;28;20032;-71
2023/11/08 02:10:20;;;;;;;5.78;1.70;;;;;;;9.25;100.00;101253.19;5266968;28;20103;-71
2023/11/08 02:12:53;;;;;;;7.38;1.52;;;;;;;9.27;100.00;101251.19;5262869;28;20077;-71
2023/11/08 02:15:25;;;;;;;4.70;1.40;;;;;;;9.33;100.00;101254.13;5254671;28;20039;-71
2023/11/08 02:17:55;;;;;;;10.07;1.58;;;;;;;9.27;100.00;101254.72;5256668;28;20024;-71
2023/11/08 02:20:26;;;;;;;8.75;1.98;;;;;;;9.36;100.00;101255.69;5256969;28;20370;-72
2023/11/08 02:22:57;;;;;;;6.85;1.70;;;;;;;9.34;100.00;101250.47;5262969;28;20107;-71
2023/11/08 02:25:30;;;;;;;16.55;2.08;;;;;;;9.36;100.00;101252.16;5252418;28;20027;-71
2023/11/08 02:28:00;;;;;;;7.93;1.60;;;;;;;9.44;100.00;101253.09;5258747;28;20476;-72
2023/11/08 02:30:31;;;;;;;6.63;1.80;;;;;;;9.45;100.00;101249.44;5262021;28;20039;-71
2023/11/08 02:33:02;;;;;;;11.18;2.38;;;;;;;9.48;100.00;101257.16;5258287;28;20035;-72
2023/11/08 02:35:32;;;;;;;7.93;1.70;;;;;;;9.55;100.00;101250.22;5251414;28;20070;-72
2023/11/08 02:38:04;;;;;;;8.13;1.33;;;;;;;9.51;100.00;101251.50;5258331;28;20020;-71
2023/11/08 02:40:34;;;;;;;6.45;2.00;;;;;;;9.50;100.00;101254.34;5259498;28;20039;-71
2023/11/08 02:43:05;;;;;;;11.70;2.55;;;;;;;9.48;100.00;101246.44;5256104;28;20107;-71
2023/11/08 02:45:35;;;;;;;10.88;2.03;;;;;;;9.53;100.00;101232.59;5258247;28;20024;-71
2023/11/08 02:48:06;;;;;;;14.77;2.42;;;;;;;9.51;100.00;101237.28;5264614;28;20024;-71
2023/11/08 02:50:39;;;;;;;13.65;3.75;;;;;;;9.44;100.00;101231.69;5262300;28;20032;-71
2023/11/08 02:53:09;;;;;;;5.53;1.60;;;;;;;9.33;100.00;101234.53;5251082;28;20073;-71
2023/11/08 02:55:40;;;;;;;11.38;2.47;;;;;;;9.37;100.00;101230.56;5253862;28;20016;-72
2023/11/08 02:58:11;;;;;;;9.10;2.05;;;;;;;9.41;100.00;101233.81;5254238;28;20036;-71
2023/11/08 03:00:42;;;;;;;3.83;1.60;;;;;;;9.37;100.00;101227.91;5257890;28;20029;-72
2023/11/08 03:03:13;;;;;;;10.68;1.85;;;;;;;9.37;100.00;101225.22;5249937;28;20020;-71
2023/11/08 03:05:44;;;;;;;7.57;1.65;;;;;;;9.34;100.00;101229.06;5259231;28;20182;-72
2023/11/08 03:08:14;;;;;;;6.57;1.63;;;;;;;9.21;100.00;101235.75;5260278;28;20104;-71
2023/11/08 03:10:45;;;;;;;9.63;2.10;;;;;;;9.26;100.00;101234.31;5251749;28;20042;-71
2023/11/08 03:13:16;;;;;;;9.85;1.85;;;;;;;9.26;100.00;101239.66;5257529;28;20024;-72
2023/11/08 03:15:47;;;;;;;16.08;3.58;;;;;;;9.16;100.00;101238.00;5268169;28;20025;-71
2023/11/08 03:18:18;;;;;;;5.00;1.27;;;;;;;9.17;100.00;101237.84;5266764;28;20031;-72
2023/11/08 03:20:49;;;;;;;6.97;1.75;;;;;;;9.18;100.00;101244.06;5255295;28;21280;-71
2023/11/08 03:23:19;;;;;;;5.07;2.05;;;;;;;9.16;100.00;101232.66;5249137;28;20112;-72
2023/11/08 03:25:51;;;;;;;11.65;2.03;;;;;;;9.07;100.00;101240.56;5259568;28;20055;-71
2023/11/08 03:28:22;;;;;;;8.95;2.05;;;;;;;9.08;100.00;101239.56;5264827;28;20028;-72
2023/11/08 03:30:53;;;;;;;6.40;1.23;;;;;;;9.10;100.00;101241.28;5262330;28;20027;-71
2023/11/08 03:33:24;;;;;;;9.18;2.17;;;;;;;9.06;100.00;101248.75;5258226;28;20081;-71
2023/11/08 03:35:55;;;;;;;7.05;1.80;;;;;;;9.11;100.00;101256.34;5255683;28;20069;-72
2023/11/08 03:38:25;;;;;;;8.52;2.05;;;;;;;9.12;100.00;101258.03;5247266;28;20024;-72
2023/11/08 03:40:56;;;;;;;4.43;1.65;;;;;;;9.08;100.00;101261.00;5252146;28;20020;-72
2023/11/08 03:43:27;;;;;;;5.07;1.35;;;;;;;9.04;100.00;101259.63;5255437;28;20453;-72
2023/11/08 03:45:57;;;;;;;3.17;1.60;;;;;;;9.05;100.00;101258.63;5258149;28;20081;-72
2023/11/08 03:48:29;;;;;;;4.18;1.38;;;;;;;8.94;100.00;101258.81;5252197;28;20023;-72
2023/11/08 03:51:01;;;;;;;10.10;2.38;;;;;;;8.96;100.00;101251.47;5258510;28;20032;-72
2023/11/08 03:53:31;;;;;;;6.10;1.65;;;;;;;8.97;100.00;101249.63;5257020;28;20022;-72
2023/11/08 03:56:03;;;;;;;6.10;1.58;;;;;;;9.00;100.00;101249.34;5259985;28;20099;-73
2023/11/08 03:58:34;;;;;;;5.70;1.70;;;;;;;8.94;100.00;101253.47;5260551;28;20032;-72
2023/11/08 04:01:04;;;;;;;9.70;1.65;;;;;;;8.92;100.00;101251.91;5256625;28;20367;-73
2023/11/08 04:03:35;;;;;;;16.00;3.38;;;;;;;8.96;100.00;101248.78;5259361;28;20036;-72
2023/11/08 04:06:05;;;;;;;5.22;1.35;;;;;;;8.93;100.00;101248.22;5252934;28;20389;-72
2023/11/08 04:08:36;;;;;;;9.93;2.78;;;;;;;9.01;100.00;101259.91;5261450;28;20034;-73
2023/11/08 04:11:07;;;;;;;11.75;2.20;;;;;;;8.94;100.00;101257.97;5254775;28;20016;-73
2023/11/08 04:13:37;;;;;;;8.95;3.30;;;;;;;8.94;100.00;101253.47;5254923;28;20059;-72
2023/11/08 04:16:07;;;;;;;6.20;2.90;;;;;;;8.98;100.00;101260.19;5256517;28;20012;-72
2023/11/08 04:18:38;;;;;;;11.48;2.05;;;;;;;9.00;100.00;101257.38;5257372;28;20089;-73
2023/11/08 04:21:08;;;;;;;6.80;1.48;;;;;;;9.08;100.00;101263.66;5256280;28;20104;-72
2023/11/08 04:23:39;;;;;;;9.70;1.40;;;;;;;9.05;100.00;101261.31;5249415;28;20035;-72
2023/11/08 04:26:09;;;;;;;12.32;2.38;;;;;;;9.04;100.00;101256.09;5258155;28;20477;-72
2023/11/08 04:28:40;;;;;;;6.95;1.55;;;;;;;9.11;100.00;101251.84;5256093;28;20039;-72
2023/11/08 04:31:10;;;;;;;5.15;1.27;;;;;;;9.07;100.00;101245.94;5253439;28;20073;-73
2023/11/08 04:33:42;;;;;;;8.43;1.70;;;;;;;9.17;100.00;101248.56;5254493;28;20394;-73
2023/11/08 04:36:12;;;;;;;9.70;1.70;;;;;;;9.19;100.00;101240.41;5258157;28;20020;-72
2023/11/08 04:38:45;;;;;;;10.73;1.50;;;;;;;9.22;100.00;101237.41;5258029;28;20034;-73
2023/11/08 04:41:15;;;;;;;6.10;1.30;;;;;;;9.23;100.00;101242.63;5257949;28;20035;-72
2023/11/08 04:43:47;;;;;;;6.47;1.63;;;;;;;9.31;100.00;101241.88;5258524;28;20366;-73
2023/11/08 04:46:17;;;;;;;4.20;1.30;;;;;;;9.33;100.00;101229.19;5258996;28;20486;-73
2023/11/08 04:48:49;;;;;;;8.98;3.65;;;;;;;9.34;100.00;101223.69;5249390;28;20029;-72
2023/11/08 04:51:20;;;;;;;8.75;1.85;;;;;;;9.46;100.00;101229.69;5248511;28;20020;-73
2023/11/08 04:53:50;;;;;;;8.10;1.63;;;;;;;9.48;100.00;101230.38;5258221;28;20028;-73
2023/11/08 04:56:20;;;;;;;9.13;1.60;;;;;;;9.49;100.00;101233.91;5252692;28;20032;-73
2023/11/08 04:58:51;;;;;;;6.53;1.55;;;;;;;9.51;100.00;101223.88;5256703;28;20024;-73
2023/11/08 05:01:21;;;;;;;6.38;1.85;;;;;;;9.57;100.00;101221.44;5255685;28;20104;-73
2023/11/08 05:03:53;;;;;;;4.53;1.80;;;;;;;9.62;100.00;101228.19;5249195;28;20477;-73
2023/11/08 05:06:23;;;;;;;8.52;2.13;;;;;;;9.62;100.00;101226.34;5257980;28;20034;-73
2023/11/08 05:08:53;;;;;;;8.00;1.80;;;;;;;9.62;100.00;101233.53;5256944;28;20016;-72
2023/11/08 05:11:25;;;;;;;5.93;1.73;;;;;;;9.59;100.00;101232.03;5253297;28;20028;-73
2023/11/08 05:13:55;;;;;;;10.05;2.15;;;;;;;9.65;100.00;101242.13;5260398;28;20031;-73
2023/11/08 05:16:26;;;;;;;9.55;2.92;;;;;;;9.67;100.00;101236.63;5261081;28;20018;-73
2023/11/08 05:18:57;;;;;;;10.77;2.00;;;;;;;9.60;100.00;101233.69;5257266;28;20500;-73
2023/11/08 05:21:27;;;;;;;8.45;2.10;;;;;;;9.70;100.00;101230.97;5258662;28;20028;-73
2023/11/08 05:23:58;;;;;;;9.45;2.30;;;;;;;9.73;100.00;101238.69;5257512;28;20031;-73
2023/11/08 05:26:28;;;;;;;12.60;2.30;;;;;;;9.73;100.00;101241.34;5254657;28;20390;-73
2023/11/08 05:28:59;;;;;;;7.47;1.98;;;;;;;9.74;100.00;101246.59;5256728;28;20020;-72
2023/11/08 05:31:33;;;;;;;10.70;2.15;;;;;;;9.76;100.00;101244.59;5251144;28;20032;-72
2023/11/08 05:34:04;;;;;;;4.97;1.90;;;;;;;9.83;100.00;101242.97;5257861;28;20547;-73
2023/11/08 05:36:36;;;;;;;16.17;3.70;;;;;;;9.80;100.00;101242.47;5254155;28;20028;-73
2023/11/08 05:39:06;;;;;;;8.77;2.05;;;;;;;9.84;100.00;101247.38;5256389;28;20442;-73
2023/11/08 05:41:37;;;;;;;7.25;2.55;;;;;;;9.88;100.00;101247.88;5261950;28;20071;-73
2023/11/08 05:44:08;;;;;;;8.63;2.45;;;;;;;9.90;100.00;101248.59;5258593;28;20073;-73
2023/11/08 05:46:38;;;;;;;11.15;2.38;;;;;;;9.84;100.00;101243.84;5258129;28;20039;-73
2023/11/08 05:49:09;;;;;;;11.75;2.20;;;;;;;9.88;100.00;101244.38;5259795;28;20484;-73
2023/11/08 05:51:39;;;;;;;10.32;2.25;;;;;;;9.81;100.00;101239.63;5251864;28;20028;-73
2023/11/08 05:54:10;;;;;;;9.50;2.13;;;;;;;9.93;100.00;101237.53;5255056;28;20481;-73
2023/11/08 05:56:41;;;;;;;9.07;2.30;;;;;;;9.92;100.00;101240.38;5261540;28;20050;-73
2023/11/08 05:59:14;;;;;;;11.48;2.78;;;;;;;9.90;100.00;101240.56;5253290;28;20024;-73
2023/11/08 06:01:44;;;;;;;11.10;2.30;;;;;;;9.80;100.00;101242.47;5258644;28;20028;-73
2023/11/08 06:04:16;;;;;;;10.73;2.33;;;;;;;9.96;100.00;101249.81;5251923;28;20031;-73
2023/11/08 06:06:48;;;;;;;16.98;2.55;;;;;;;10.00;100.00;101259.25;5251817;28;20111;-73
2023/11/08 06:09:18;;;;;;;16.45;3.00;;;;;;;9.84;100.00;101260.75;5254942;28;20116;-73
2023/11/08 06:11:50;;;;;;;3.90;2.00;;;;;;;9.92;100.00;101267.19;5253219;28;20066;-73
2023/11/08 06:14:20;;;;;;;12.52;2.40;;;;;;;9.86;100.00;101258.75;5261354;28;20028;-73
2023/11/08 06:16:51;;;;;;;13.30;2.22;;;;;;;9.80;100.00;101264.72;5256605;28;20415;-73
2023/11/08 06:19:22;;;;;;;12.73;2.10;;;;;;;9.86;100.00;101264.13;5260647;28;20020;-73
2023/11/08 06:21:53;;;;;;;6.90;2.97;;;;;;;9.77;100.00;101257.00;5256907;28;20026;-73
2023/11/08 06:24:23;;;;;;;9.43;2.50;;;;;;;9.75;100.00;101256.31;5256108;28;20147;-73
2023/11/08 06:26:54;;;;;;;12.70;2.38;;;;;;;9.80;100.00;101255.84;5261740;28;20077;-73
2023/11/08 06:29:24;;;;;;;11.52;2.28;;;;;;;9.82;100.00;101256.53;5256189;28;20506;-73
2023/11/08 06:31:56;;;;;;;9.43;2.35;;;;;;;9.84;100.00;101263.44;5258261;28;20030;-73
2023/11/08 06:34:27;;;;;;;10.65;3.05;;;;;;;9.67;100.00;101255.38;5257532;28;20027;-73
2023/11/08 06:36:57;;;;;;;7.95;2.28;;;;;;;9.78;100.00;101255.97;5253907;28;20044;-73
2023/11/08 06:39:28;;;;;;;11.90;2.75;;;;;;;9.78;100.00;101258.66;5255912;28;20112;-73
2023/11/08 06:42:00;;;;;;;11.13;3.13;;;;;;;9.72;100.00;101259.28;5260405;28;20051;-72
2023/11/08 06:44:31;;;;;;;11.40;2.92;;;;;;;9.71;100.00;101265.63;5256126;28;20409;-73
2023/11/08 06:47:02;;;;;;;15.32;3.28;;;;;;;9.63;100.00;101256.66;5260793;28;20517;-73
2023/11/08 06:49:32;;;;;;;7.95;3.30;;;;;;;9.57;100.00;101258.09;5250828;28;20050;-73
2023/11/08 06:52:04;;;;;;;15.93;4.60;;;;;;;9.57;100.00;101250.91;5257778;28;20040;-73
2023/11/08 06:54:34;;;;;;;13.80;3.95;;;;;;;9.47;100.00;101250.13;5249478;28;20032;-73
2023/11/08 06:57:05;;;;;;;16.13;3.15;;;;;;;9.41;100.00;101256.06;5260549;28;20023;-73
2023/11/08 06:59:36;;;;;;;14.73;3.58;;;;;;;9.42;100.00;101249.72;5255707;28;20496;-73
2023/11/08 07:02:07;;;;;;;15.18;3.80;;;;;;;9.42;100.00;101248.88;5263407;28;20020;-73
2023/11/08 07:04:38;;;;;;;15.95;3.45;;;;;;;9.40;100.00;101256.22;5253152;28;20028;-73
2023/11/08 07:07:11;;;;;;;8.45;2.85;;;;;;;9.45;100.00;101267.34;5249985;28;20047;-73
2023/11/08 07:09:41;;;;;;;16.42;4.13;;;;;;;9.52;100.00;101263.06;5257548;28;20514;-73
2023/11/08 07:12:13;;;;;;;16.90;4.85;;;;;;;9.54;100.00;101261.94;5253128;28;20024;-73
2023/11/08 07:14:44;;;;;;;13.15;4.03;;;;;;;9.49;100.00;101268.72;5252196;28;20409;-73
2023/11/08 07:17:14;;;;;;;12.93;3.22;;;;;;;9.41;100.00;101258.75;5251185;28;20028;-73
2023/11/08 07:19:45;;;;;;;15.55;3.22;;;;;;;9.46;100.00;101263.66;5250535;28;20028;-73
2023/11/08 07:22:16;;;;;;;13.82;3.10;;;;;;;9.54;100.00;101259.25;5251894;28;20393;-73
2023/11/08 07:24:46;;;;;;;14.45;3.17;;;;;;;9.51;100.00;101256.88;5257245;28;20032;-73
2023/11/08 07:27:17;;;;;;;10.63;3.45;;;;;;;9.65;100.00;101255.53;5255687;28;20023;-73
2023/11/08 07:29:48;;;;;;;13.68;3.13;;;;;;;9.81;100.00;101262.91;5258565;28;20099;-72
2023/11/08 07:32:18;;;;;;;17.45;3.22;;;;;;;9.81;100.00;101265.56;5256318;28;20154;-73
2023/11/08 07:34:49;;;;;;;11.05;3.50;;;;;;;9.97;100.00;101272.94;5264534;28;20027;-73
2023/11/08 07:37:19;;;;;;;12.25;3.30;;;;;;;9.96;100.00;101276.63;5258529;28;20036;-73
2023/11/08 07:39:50;;;;;;;16.90;4.32;;;;;;;9.93;100.00;101264.34;5262504;28;20020;-73
2023/11/08 07:42:22;;;;;;;12.13;3.10;;;;;;;9.93;100.00;101263.50;5262224;28;20043;-73
2023/11/08 07:44:52;;;;;;;10.73;2.75;;;;;;;9.86;100.00;101260.59;5257784;28;20111;-72
2023/11/08 07:47:23;;;;;;;14.43;3.55;;;;;;;9.71;100.00;101267.47;5255652;28;20145;-72
2023/11/08 07:49:54;;;;;;;14.85;4.57;;;;;;;9.73;100.00;101276.19;5262385;28;20028;-73
2023/11/08 07:52:25;;;;;;;13.38;3.00;;;;;;;9.78;100.00;101266.69;5266336;28;20026;-70
2023/11/08 07:54:55;;;;;;;14.38;2.40;;;;;;;9.71;100.00;101283.53;5255312;28;20095;-70
2023/11/08 07:57:26;;;;;;;12.05;2.90;;;;;;;9.81;100.00;101289.69;5267193;28;20513;-73
2023/11/08 07:59:57;;;;;;;17.17;3.13;;;;;;;10.04;100.00;101288.28;5254268;28;20015;-73
2023/11/08 08:02:28;;;;;;;8.43;2.60;;;;;;;10.16;100.00;101285.38;5249014;28;20020;-73
2023/11/08 08:04:59;;;;;;;8.75;2.83;;;;;;;10.49;100.00;101286.50;5255652;28;20070;-73
2023/11/08 08:07:29;;;;;;;13.85;2.42;;;;;;;10.80;100.00;101284.25;5262370;28;20031;-73
2023/11/08 08:10:00;;;;;;;11.32;2.35;;;;;;;10.77;100.00;101285.41;5259314;28;20024;-73
2023/11/08 08:12:30;;;;;;;15.70;3.35;;;;;;;11.01;100.00;101279.38;5250896;28;20766;-73
2023/11/08 08:15:01;;;;;;;13.93;4.07;;;;;;;11.22;100.00;101288.88;5260376;28;20031;-73
2023/11/08 08:17:34;;;;;;;17.55;3.38;;;;;;;11.56;100.00;101291.56;5251528;28;20024;-74
2023/11/08 08:20:05;;;;;;;9.07;2.33;;;;;;;11.40;100.00;101285.13;5243343;28;20142;-74
2023/11/08 08:22:36;;;;;;;10.07;2.55;;;;;;;11.29;100.00;101284.53;5245879;28;20032;-73
2023/11/08 08:25:07;;;;;;;11.60;3.28;;;;;;;10.91;100.00;101291.22;5251961;28;20082;-72
2023/11/08 08:27:40;;;;;;;11.40;3.17;;;;;;;10.76;100.00;101294.47;5253376;28;20079;-72
2023/11/08 08:30:14;;;;;;;15.20;2.80;;;;;;;10.47;100.00;101289.34;5260748;28;20063;-72
2023/11/08 08:32:45;;;;;;;12.68;2.58;;;;;;;10.39;100.00;101281.22;5249581;28;20019;-72
2023/11/08 08:35:17;;;;;;;15.27;2.72;;;;;;;10.55;100.00;101286.75;5260407;28;20034;-72
2023/11/08 08:37:48;;;;;;;11.98;2.60;;;;;;;10.32;100.00;101285.53;5258800;28;20024;-72
2023/11/08 08:40:18;;;;;;;11.25;3.58;;;;;;;10.37;100.00;101286.75;5265722;28;20371;-72
2023/11/08 08:42:50;;;;;;;14.85;3.42;;;;;;;10.48;100.00;101274.94;5254812;28;20020;-72
2023/11/08 08:45:20;;;;;;;7.25;2.33;;;;;;;10.58;100.00;101280.22;5255543;28;20490;-72
2023/11/08 08:47:53;;;;;;;8.88;2.72;;;;;;;10.69;100.00;101274.59;5251866;28;20042;-72
2023/11/08 08:50:24;;;;;;;8.18;2.50;;;;;;;11.29;100.00;101271.94;5262668;28;20026;-72
2023/11/08 08:52:54;;;;;;;9.30;2.80;;;;;;;11.72;100.00;101267.44;5261244;28;20024;-72
2023/11/08 08:55:25;;;;;;;10.10;2.83;;;;;;;11.60;100.00;101266.91;5262529;28;20028;-72
2023/11/08 08:57:55;;;;;;;9.60;2.83;;;;;;;11.77;100.00;101270.47;5255234;28;20020;-72
2023/11/08 09:00:27;;;;;;;10.50;2.83;;;;;;;11.84;100.00;101282.25;5261971;28;20020;-72
2023/11/08 09:02:57;;;;;;;12.38;2.70;;;;;;;11.90;100.00;101273.56;5265092;28;20066;-73
2023/11/08 09:05:29;;;;;;;16.63;2.53;;;;;;;11.79;100.00;101275.66;5255890;28;20482;-72
2023/11/08 09:08:00;;;;;;;13.43;2.80;;;;;;;11.72;100.00;101272.81;5259626;28;20047;-72
2023/11/08 09:10:31;;;;;;;8.93;2.70;;;;;;;11.61;100.00;101278.47;5263247;28;20027;-72
2023/11/08 09:13:02;;;;;;;9.93;2.40;;;;;;;11.78;100.00;101265.94;5253087;28;20022;-72
2023/11/08 09:15:32;;;;;;;13.77;3.42;;;;;;;11.90;100.00;101268.19;5255663;28;20030;-73
2023/11/08 09:18:03;;;;;;;11.57;3.00;;;;;;;11.98;100.00;101259.28;5255265;28;20411;-72
2023/11/08 09:20:34;;;;;;;10.35;2.60;;;;;;;12.21;100.00;101269.41;5252765;28;20025;-72
2023/11/08 09:23:04;;;;;;;11.38;2.60;;;;;;;12.60;100.00;101262.34;5265460;28;20099;-72
2023/11/08 09:25:35;;;;;;;11.70;2.92;;;;;;;12.74;100.00;101259.97;5256646;28;20032;-73
2023/11/08 09:28:05;;;;;;;8.52;2.88;;;;;;;12.88;100.00;101260.13;5255262;28;20020;-73
2023/11/08 09:30:36;;;;;;;12.27;3.00;;;;;;;12.81;100.00;101267.22;5258293;28;20032;-73
2023/11/08 09:33:06;;;;;;;9.68;2.50;;;;;;;12.69;100.00;101274.78;5255228;28;20016;-73
2023/11/08 09:35:37;;;;;;;5.18;2.40;;;;;;;12.62;100.00;101267.56;5253231;28;20480;-73
2023/11/08 09:38:08;;;;;;;12.70;2.80;;;;;;;12.82;100.00;101268.06;5262985;28;20829;-73
2023/11/08 09:40:39;;;;;;;10.57;3.65;;;;;;;12.93;100.00;101265.00;5256857;28;20404;-74
2023/11/08 09:43:09;;;;;;;8.93;2.42;;;;;;;12.77;100.00;101271.25;5261487;28;20024;-72
2023/11/08 09:45:40;;;;;;;7.55;2.25;;;;;;;12.65;100.00;101267.22;5259362;28;20028;-72
2023/11/08 09:48:12;;;;;;;6.75;2.33;;;;;;;12.61;100.00;101263.19;5263071;28;20119;-72
2023/11/08 09:50:42;;;;;;;6.78;2.33;;;;;;;12.30;100.00;101261.19;5252488;28;20435;-72
2023/11/08 09:53:13;;;;;;;13.75;3.10;;;;;;;12.29;100.00;101250.56;5262476;28;20023;-72
2023/11/08 09:55:45;;;;;;;7.43;2.80;;;;;;;12.28;100.00;101248.91;5262054;28;20488;-72
2023/11/08 09:58:16;;;;;;;5.57;2.50;;;;;;;12.20;100.00;101241.69;5261387;28;20039;-72
2023/11/08 10:00:47;;;;;;;13.30;2.40;;;;;;;12.07;100.00;101244.00;5255933;28;20027;-72
2023/11/08 10:03:17;;;;;;;13.75;2.63;;;;;;;12.22;100.00;101239.66;5253971;28;20055;-72
2023/11/08 10:05:48;;;;;;;9.85;2.55;;;;;;;12.40;100.00;101243.03;5257077;28;20024;-74
2023/11/08 10:08:19;;;;;;;9.27;2.17;;;;;;;12.76;100.00;101231.88;5261283;28;20541;-73
2023/11/08 10:10:53;;;;;;;7.15;2.40;;;;;;;12.72;100.00;101227.00;5247647;28;20402;-74
2023/11/08 10:13:40;;;;;;;15.20;2.00;;;;;;;12.73;100.00;101234.91;5245476;28;20044;-72
2023/11/08 10:16:11;;;;;;;13.38;2.28;;;;;;;12.62;100.00;101225.34;5251484;28;20035;-73
2023/11/08 10:18:43;;;;;;;11.07;2.45;;;;;;;12.68;100.00;101218.44;5248313;28;20115;-72
2023/11/08 10:21:17;;;;;;;8.43;1.80;;;;;;;12.66;100.00;101215.91;5250864;28;20016;-73
2023/11/08 10:23:50;;;;;;;9.05;2.13;;;;;;;12.60;100.00;101216.59;5249237;28;20032;-73
2023/11/08 10:26:23;;;;;;;10.45;1.83;;;;;;;13.06;100.00;101216.00;5256365;28;20043;-74
2023/11/08 10:28:55;;;;;;;6.78;2.30;;;;;;;13.33;100.00;101198.56;5262412;28;20388;-73
2023/11/08 10:31:28;;;;;;;6.15;1.85;;;;;;;13.27;100.00;101207.34;5251318;28;20529;-73
2023/11/08 10:34:02;;;;;;;8.45;1.75;;;;;;;13.51;100.00;101201.00;5252876;28;20669;-73
2023/11/08 10:36:33;;;;;;;6.68;2.05;;;;;;;13.47;100.00;101203.22;5253849;28;20021;-73
2023/11/08 10:39:07;;;;;;;10.93;2.42;;;;;;;13.05;100.00;101192.75;5256031;28;20036;-73
2023/11/08 10:41:41;;;;;;;9.10;1.98;;;;;;;12.99;100.00;101194.28;5248301;28;20028;-73
2023/11/08 10:44:13;;;;;;;9.32;2.22;;;;;;;12.74;100.00;101198.91;5259468;28;20601;-73
2023/11/08 10:46:43;;;;;;;5.97;1.70;;;;;;;13.00;100.00;101195.13;5259426;28;20070;-73
2023/11/08 10:49:14;;;;;;;9.30;2.03;;;;;;;13.08;100.00;101193.25;5262878;28;20157;-74
2023/11/08 10:51:45;;;;;;;6.25;1.58;;;;;;;12.70;100.00;101174.19;5257309;28;20024;-74
2023/11/08 10:54:16;;;;;;;12.27;2.28;;;;;;;12.74;100.00;101163.91;5263511;28;20024;-73
2023/11/08 10:56:50;;;;;;;8.05;2.10;;;;;;;12.73;100.00;101169.47;5253174;28;20382;-73
2023/11/08 10:59:21;;;;;;;9.40;1.90;;;;;;;12.69;100.00;101160.88;5248072;28;20074;-73
2023/11/08 11:01:53;;;;;;;5.43;1.95;;;;;;;12.84;100.00;101150.25;5252921;28;20063;-73
2023/11/08 11:04:26;;;;;;;9.15;1.60;;;;;;;12.53;100.00;101150.16;5259291;28;20085;-73
2023/11/08 11:06:57;;;;;;;6.05;1.60;;;;;;;12.64;100.00;101142.56;5255201;28;20078;-73
2023/11/08 11:09:28;;;;;;;5.75;1.77;;;;;;;12.73;100.00;101148.75;5250115;28;20473;-74
2023/11/08 11:12:09;;;;;;;4.05;1.20;;;;;;;12.79;100.00;101147.22;5253158;28;20088;-73
2023/11/08 11:14:46;;;;;;;8.25;1.80;;;;;;;12.69;100.00;101142.03;5259658;28;20032;-73
2023/11/08 11:17:22;;;;;;;6.95;1.63;;;;;;;12.79;100.00;101139.16;5250950;28;20478;-73
2023/11/08 11:19:56;;;;;;;7.00;1.80;;;;;;;12.83;100.00;101146.72;5255920;28;20032;-73
2023/11/08 11:22:27;;;;;;;8.35;1.45;;;;;;;12.99;100.00;101140.41;5248475;28;20425;-72
2023/11/08 11:24:58;;;;;;;7.65;1.98;;;;;;;13.04;100.00;101137.19;5254219;28;20035;-73
2023/11/08 11:27:32;;;;;;;8.10;1.60;;;;;;;12.95;100.00;101125.63;5250930;28;20023;-73
2023/11/08 11:30:17;;;;;;;6.38;1.65;;;;;;;13.07;100.00;101128.78;5254472;28;20028;-73
2023/11/08 11:32:51;;;;;;;7.65;1.60;;;;;;;12.88;100.00;101138.94;5246561;28;20040;-73
2023/11/08 11:35:28;;;;;;;11.73;2.70;;;;;;;12.76;100.00;101128.75;5248566;28;20043;-73
2023/11/08 11:38:06;;;;;;;6.15;2.35;;;;;;;12.76;100.00;101124.19;5253997;28;20630;-73